KAUW

Wausau Downtown Airport

Wausau, Wisconsin, USA
METAR KAUW 181254Z AUTO 34005KT 10SM CLR M14/M19 A3012 RMK AO2 SLP228 T11441189
Observed Flight Rules
Jan-18 @ 12:54 UTC (55 minutes ago) Visual Flight Rules
Wind Visibility Clouds
340° at 5 knots 10 miles
  • Clear skies
Temperatures Readings
Current -14°C / 7°F
Dewpoint -19°C / -2°F
Humidity 66%
Altimeter 30.12" Hg
Pressure 1022.8 hPa
Elevation 362
METAR KAUW 181254Z AUTO 34005KT 10SM CLR M14/M19 A3012 RMK AO2 SLP228 T11441189
Observed Flight Rules
Jan-18 @ 12:54 UTC
(55 minutes ago)
VFR
Wind Visibility
340° at 5 knots 10 miles
Clouds
  • Clear skies
Temperature Dewpoint
-14°C / 7°F -19°C / -2°F
Humidity Altimeter Pressure
66% 30.12" Hg 1022.8 hPa